Time;durP1;ratioP1;P1;durP2;ratioP2;P2;SDS_P1;SDS_P2;PMS_P1;PMS_P2;Temp;Humidity;BMP_temperature;BMP_pressure;BME280_temperature;BME280_humidity;BME280_pressure;Samples;Min_cycle;Max_cycle;Signal;HPM_P1;HPM_P2
2023/06/22 00:01:17;;;;;;;9.67;8.80;;;22.00;99.90;;;;;;4961096;28;20204;-66
2023/06/22 00:03:42;;;;;;;9.50;8.60;;;22.10;99.90;;;;;;4965001;28;20447;-66
2023/06/22 00:06:08;;;;;;;9.53;8.63;;;22.20;99.90;;;;;;4962660;28;20214;-66
2023/06/22 00:08:33;;;;;;;8.67;7.97;;;22.20;99.90;;;;;;4964656;28;20196;-68
2023/06/22 00:10:59;;;;;;;9.10;8.30;;;22.00;99.90;;;;;;4968818;28;20215;-66
2023/06/22 00:13:25;;;;;;;9.80;8.80;;;22.00;99.90;;;;;;4963411;28;20224;-66
2023/06/22 00:15:50;;;;;;;9.90;8.90;;;22.00;99.90;;;;;;4963885;28;20219;-68
2023/06/22 00:18:16;;;;;;;10.03;9.10;;;21.90;99.90;;;;;;4960903;28;20208;-66
2023/06/22 00:20:42;;;;;;;10.17;9.17;;;21.70;99.90;;;;;;4963440;28;20185;-66
2023/06/22 00:23:08;;;;;;;9.47;8.63;;;21.60;99.90;;;;;;4960162;28;20185;-66
2023/06/22 00:25:41;;;;;;;10.13;9.07;;;21.60;99.90;;;;;;4965917;28;20443;-65
2023/06/22 00:28:07;;;;;;;9.80;8.85;;;21.70;99.90;;;;;;4963037;28;20196;-65
2023/06/22 00:30:33;;;;;;;10.98;9.80;;;21.70;99.90;;;;;;4963709;28;20192;-67
2023/06/22 00:33:00;;;;;;;9.90;9.00;;;21.50;99.90;;;;;;4960311;28;20279;-68
2023/06/22 00:35:29;;;;;;;10.45;8.90;;;21.40;99.90;;;;;;4964451;28;20193;-66
2023/06/22 00:38:00;;;;;;;9.93;8.82;;;21.30;99.90;;;;;;4958336;28;20263;-66
2023/06/22 00:40:27;;;;;;;9.88;9.07;;;21.30;99.90;;;;;;4962034;28;20259;-66
2023/06/22 00:42:54;;;;;;;9.27;8.48;;;21.40;99.90;;;;;;4960769;28;20205;-67
2023/06/22 00:45:19;;;;;;;8.90;8.10;;;21.50;99.90;;;;;;4962289;28;20197;-68
2023/06/22 00:47:45;;;;;;;9.10;8.30;;;21.40;99.90;;;;;;4964706;28;20184;-68
2023/06/22 00:50:18;;;;;;;9.53;8.73;;;21.10;99.90;;;;;;4966629;28;20228;-68
2023/06/22 00:52:44;;;;;;;10.80;9.70;;;21.10;99.90;;;;;;4958495;28;20483;-68
2023/06/22 00:55:10;;;;;;;9.60;8.80;;;21.10;99.90;;;;;;4962664;28;20191;-68
2023/06/22 00:57:37;;;;;;;10.77;9.67;;;21.10;99.90;;;;;;4963814;28;20561;-67
2023/06/22 01:00:06;;;;;;;9.10;8.20;;;21.00;99.90;;;;;;4956883;28;20578;-68
2023/06/22 01:02:32;;;;;;;9.23;8.35;;;20.90;99.90;;;;;;4960686;28;20761;-67
2023/06/22 01:04:57;;;;;;;9.63;8.82;;;20.80;99.90;;;;;;4965019;28;20239;-68
2023/06/22 01:07:37;;;;;;;11.60;9.30;;;20.70;99.90;;;;;;4961374;28;20603;-68
2023/06/22 01:10:20;;;;;;;8.85;8.05;;;20.70;99.90;;;;;;4965816;28;20623;-65
2023/06/22 01:12:51;;;;;;;8.75;7.95;;;20.80;99.90;;;;;;4960298;28;20207;-68
2023/06/22 01:15:32;;;;;;;9.55;8.70;;;21.00;99.90;;;;;;4965709;28;20341;-67
2023/06/22 01:17:59;;;;;;;9.05;8.15;;;21.00;99.90;;;;;;4964968;28;20212;-68
2023/06/22 01:20:27;;;;;;;10.00;9.20;;;21.00;99.90;;;;;;4961056;28;20284;-68
2023/06/22 01:23:06;;;;;;;9.05;8.20;;;21.00;99.90;;;;;;4958536;28;20280;-65
2023/06/22 01:25:43;;;;;;;9.18;8.27;;;21.30;99.90;;;;;;4964384;28;20785;-65
2023/06/22 01:28:30;;;;;;;9.83;8.83;;;21.70;99.90;;;;;;4965247;28;20903;-65
2023/06/22 01:31:05;;;;;;;9.35;8.27;;;21.70;99.90;;;;;;4959686;28;20483;-68
2023/06/22 01:33:37;;;;;;;8.73;7.93;;;21.60;99.90;;;;;;4964593;28;20195;-65
2023/06/22 01:36:03;;;;;;;9.20;8.30;;;21.70;99.90;;;;;;4965328;28;20195;-65
2023/06/22 01:38:30;;;;;;;7.80;7.20;;;22.00;99.90;;;;;;4960174;28;20564;-68
2023/06/22 01:40:57;;;;;;;8.93;8.05;;;22.10;99.90;;;;;;4960892;28;20211;-65
2023/06/22 01:43:26;;;;;;;8.45;7.63;;;22.20;99.90;;;;;;4966214;28;20607;-66
2023/06/22 01:45:53;;;;;;;8.48;7.57;;;22.10;99.90;;;;;;4961976;28;20304;-65
2023/06/22 01:48:20;;;;;;;9.25;8.40;;;22.20;99.90;;;;;;4963778;28;20188;-65
2023/06/22 01:50:45;;;;;;;10.02;9.02;;;22.30;99.90;;;;;;4963358;28;20197;-64
2023/06/22 01:53:11;;;;;;;8.60;7.90;;;22.10;99.90;;;;;;4961153;28;20704;-65
2023/06/22 01:55:37;;;;;;;8.50;7.70;;;22.20;99.90;;;;;;4963308;28;20439;-66
2023/06/22 01:58:02;;;;;;;8.30;7.50;;;22.40;99.90;;;;;;4964094;28;20707;-65
2023/06/22 02:00:32;;;;;;;8.60;7.80;;;22.30;99.90;;;;;;4962246;28;20271;-65
2023/06/22 02:03:08;;;;;;;9.30;8.40;;;21.90;99.90;;;;;;4964732;28;20546;-65
2023/06/22 02:05:45;;;;;;;9.05;8.25;;;21.70;99.90;;;;;;4962225;28;20197;-65
2023/06/22 02:08:24;;;;;;;9.15;8.35;;;21.60;99.90;;;;;;4957780;28;20781;-64
2023/06/22 02:10:53;;;;;;;9.00;8.10;;;21.40;99.90;;;;;;4958428;28;20185;-64
2023/06/22 02:13:19;;;;;;;8.80;8.10;;;21.30;99.90;;;;;;4960300;28;20551;-65
2023/06/22 02:15:46;;;;;;;9.47;8.47;;;21.30;99.90;;;;;;4957343;28;20191;-64
2023/06/22 02:18:12;;;;;;;8.35;7.57;;;21.20;99.90;;;;;;4958960;28;20542;-65
2023/06/22 02:20:39;;;;;;;8.98;8.18;;;21.30;99.90;;;;;;4959516;28;20193;-65
2023/06/22 02:23:06;;;;;;;7.18;6.57;;;21.40;99.90;;;;;;4960979;28;20184;-64
2023/06/22 02:25:32;;;;;;;9.20;8.30;;;21.70;99.90;;;;;;4961100;28;20653;-65
2023/06/22 02:27:58;;;;;;;10.40;8.57;;;22.00;99.90;;;;;;4964225;28;20188;-65
2023/06/22 02:30:24;;;;;;;10.13;8.60;;;21.80;99.90;;;;;;4960550;28;20264;-65
2023/06/22 02:32:58;;;;;;;8.67;7.83;;;21.60;99.90;;;;;;4961598;28;20277;-64
2023/06/22 02:35:31;;;;;;;8.48;7.68;;;21.60;99.90;;;;;;4962678;28;20681;-64
2023/06/22 02:37:58;;;;;;;7.70;7.07;;;21.60;99.90;;;;;;4958942;28;20223;-64
2023/06/22 02:40:23;;;;;;;8.90;8.10;;;21.60;99.90;;;;;;4956643;28;20193;-64
2023/06/22 02:42:49;;;;;;;8.70;7.90;;;21.60;99.90;;;;;;4963137;28;20210;-65
2023/06/22 02:45:14;;;;;;;9.50;8.70;;;21.40;99.90;;;;;;4957630;28;20187;-64
2023/06/22 02:47:40;;;;;;;8.13;7.33;;;21.30;99.90;;;;;;4963053;28;20418;-64
2023/06/22 02:50:06;;;;;;;8.30;7.60;;;21.40;99.90;;;;;;4965316;28;20184;-65
2023/06/22 02:52:31;;;;;;;8.60;7.70;;;21.70;99.90;;;;;;4956222;28;21184;-65
2023/06/22 02:54:57;;;;;;;9.87;8.97;;;22.10;99.90;;;;;;4959436;28;20511;-65
2023/06/22 02:57:22;;;;;;;9.20;8.33;;;21.90;99.90;;;;;;4957489;28;20193;-65
2023/06/22 02:59:48;;;;;;;10.10;8.37;;;21.60;99.90;;;;;;4963200;28;20204;-64
2023/06/22 03:02:14;;;;;;;9.80;8.80;;;21.30;99.90;;;;;;4954943;28;20212;-64
2023/06/22 03:04:39;;;;;;;9.00;8.20;;;21.10;99.90;;;;;;4959061;28;20223;-64
2023/06/22 03:07:05;;;;;;;8.80;7.90;;;21.00;99.90;;;;;;4964859;28;20542;-64
2023/06/22 03:09:31;;;;;;;8.30;7.40;;;21.10;99.90;;;;;;4967691;28;20705;-65
2023/06/22 03:11:56;;;;;;;9.27;8.47;;;21.40;99.90;;;;;;4965868;28;20209;-64
2023/06/22 03:14:22;;;;;;;9.67;8.53;;;21.70;99.90;;;;;;4967037;28;20274;-64
2023/06/22 03:16:48;;;;;;;10.80;9.80;;;21.50;99.90;;;;;;4959520;28;20436;-65
2023/06/22 03:19:14;;;;;;;9.43;8.53;;;21.20;99.90;;;;;;4964516;28;20224;-64
2023/06/22 03:21:40;;;;;;;10.57;9.50;;;21.00;99.90;;;;;;4967672;28;20218;-65
2023/06/22 03:24:06;;;;;;;8.90;8.10;;;20.90;99.90;;;;;;4966345;28;20455;-64
2023/06/22 03:26:32;;;;;;;8.70;7.90;;;21.00;99.90;;;;;;4965596;28;20180;-65
2023/06/22 03:28:57;;;;;;;8.60;7.80;;;21.40;99.90;;;;;;4965459;28;20555;-65
2023/06/22 03:31:23;;;;;;;8.80;7.90;;;21.80;99.90;;;;;;4961060;28;20212;-65
2023/06/22 03:33:50;;;;;;;9.93;9.03;;;21.80;99.90;;;;;;4960224;28;20203;-65
2023/06/22 03:36:19;;;;;;;9.95;9.05;;;21.50;99.90;;;;;;4963743;28;20200;-64
2023/06/22 03:38:49;;;;;;;9.80;8.90;;;21.20;99.90;;;;;;4966583;28;20262;-69
2023/06/22 03:41:14;;;;;;;10.25;9.35;;;21.30;99.90;;;;;;4961589;28;20248;-72
2023/06/22 03:43:40;;;;;;;11.77;8.73;;;21.20;99.90;;;;;;4965121;28;20212;-72
2023/06/22 03:46:06;;;;;;;9.27;8.43;;;21.20;99.90;;;;;;4959893;28;20653;-73
2023/06/22 03:48:31;;;;;;;8.87;8.17;;;21.30;99.90;;;;;;4956209;28;20660;-72
2023/06/22 03:50:59;;;;;;;9.47;8.37;;;21.20;99.90;;;;;;4959294;28;20264;-72
2023/06/22 03:53:25;;;;;;;10.13;9.10;;;21.20;99.90;;;;;;4965619;28;20188;-72
2023/06/22 03:55:52;;;;;;;10.30;9.30;;;21.10;99.90;;;;;;4961409;28;20254;-72
2023/06/22 03:58:19;;;;;;;9.70;8.80;;;21.20;99.90;;;;;;4962793;28;20212;-72
2023/06/22 04:00:49;;;;;;;10.07;9.18;;;21.10;99.90;;;;;;4979703;28;20177;-72
2023/06/22 04:03:15;;;;;;;9.38;8.48;;;21.10;99.90;;;;;;4958521;28;20185;-72
2023/06/22 04:05:42;;;;;;;9.45;8.55;;;21.10;99.90;;;;;;4959770;28;20214;-72
2023/06/22 04:08:07;;;;;;;11.68;9.35;;;21.20;99.90;;;;;;4963206;28;20286;-72
2023/06/22 04:10:33;;;;;;;10.07;9.13;;;21.20;99.90;;;;;;4964337;28;20631;-72
2023/06/22 04:13:00;;;;;;;9.90;9.00;;;21.10;99.90;;;;;;4962063;28;20743;-72
2023/06/22 04:15:25;;;;;;;9.38;8.57;;;21.10;99.90;;;;;;4960824;28;20188;-72
2023/06/22 04:17:51;;;;;;;9.90;9.00;;;21.10;99.90;;;;;;4960665;28;20212;-72
2023/06/22 04:20:17;;;;;;;9.13;8.33;;;21.20;99.90;;;;;;4963494;28;20188;-73
2023/06/22 04:22:43;;;;;;;9.77;8.70;;;21.20;99.90;;;;;;4958691;28;20611;-73
2023/06/22 04:25:08;;;;;;;10.60;9.63;;;21.30;99.90;;;;;;4955098;28;20189;-72
2023/06/22 04:27:37;;;;;;;10.23;9.33;;;21.30;99.90;;;;;;4964853;28;20238;-73
2023/06/22 04:30:03;;;;;;;11.43;10.27;;;21.20;99.90;;;;;;4962024;28;20176;-72
2023/06/22 04:32:29;;;;;;;10.45;9.55;;;21.30;99.90;;;;;;4963387;28;20689;-72
2023/06/22 04:34:54;;;;;;;10.00;8.90;;;21.40;99.90;;;;;;4958889;28;20192;-73
2023/06/22 04:37:23;;;;;;;10.67;9.67;;;21.40;99.90;;;;;;4960570;28;20188;-73
2023/06/22 04:39:49;;;;;;;10.35;9.45;;;21.50;99.90;;;;;;4962473;28;20529;-73
2023/06/22 04:42:14;;;;;;;9.87;8.87;;;21.50;99.90;;;;;;4957199;28;20206;-72
2023/06/22 04:44:41;;;;;;;10.60;9.70;;;21.40;99.90;;;;;;4962438;28;20471;-72
2023/06/22 04:47:08;;;;;;;10.70;9.73;;;21.50;99.90;;;;;;4958033;28;20181;-71
2023/06/22 04:49:40;;;;;;;10.70;9.53;;;21.60;99.90;;;;;;4956563;28;20188;-72
2023/06/22 04:52:07;;;;;;;10.85;9.80;;;21.70;99.90;;;;;;4960322;28;20991;-73
2023/06/22 04:54:34;;;;;;;13.93;10.55;;;21.70;99.90;;;;;;4958779;28;20204;-72
2023/06/22 04:57:01;;;;;;;11.32;10.32;;;21.70;99.90;;;;;;4961349;28;20552;-72
2023/06/22 04:59:29;;;;;;;10.98;10.07;;;21.70;99.90;;;;;;4962955;28;20201;-73
2023/06/22 05:01:59;;;;;;;12.37;11.17;;;21.90;99.90;;;;;;4957139;28;20305;-71
2023/06/22 05:04:27;;;;;;;11.07;10.00;;;22.10;99.90;;;;;;4958832;28;20795;-73
2023/06/22 05:06:53;;;;;;;11.77;10.57;;;22.20;99.90;;;;;;4958680;28;20813;-72
2023/06/22 05:09:20;;;;;;;10.68;9.68;;;22.20;99.90;;;;;;4959770;28;20526;-72
2023/06/22 05:11:46;;;;;;;13.70;12.40;;;22.40;99.90;;;;;;4960427;28;20394;-72
2023/06/22 05:14:12;;;;;;;11.03;10.03;;;22.50;99.90;;;;;;4959077;28;20447;-72
2023/06/22 05:16:38;;;;;;;11.73;9.93;;;22.50;99.90;;;;;;4957983;28;20459;-71
2023/06/22 05:19:04;;;;;;;11.77;10.57;;;22.50;99.90;;;;;;4956326;28;20471;-71
2023/06/22 05:21:30;;;;;;;11.40;10.40;;;22.60;99.90;;;;;;4954955;28;20460;-72
2023/06/22 05:24:00;;;;;;;11.37;10.27;;;22.60;99.90;;;;;;4957059;28;20573;-71
2023/06/22 05:26:26;;;;;;;11.20;10.10;;;22.70;99.90;;;;;;4958336;28;20590;-72
2023/06/22 05:28:52;;;;;;;13.80;11.10;;;22.80;99.90;;;;;;4959952;28;20435;-72
2023/06/22 05:31:21;;;;;;;11.70;10.20;;;22.90;99.90;;;;;;4955701;28;21015;-72
2023/06/22 05:33:49;;;;;;;11.97;10.87;;;23.00;99.90;;;;;;4960103;28;20543;-71
2023/06/22 05:36:15;;;;;;;10.90;9.80;;;22.80;99.90;;;;;;4951613;28;20503;-72
2023/06/22 05:38:41;;;;;;;11.93;10.83;;;22.90;99.90;;;;;;4959395;28;20567;-71
2023/06/22 05:41:07;;;;;;;12.43;11.23;;;23.00;99.90;;;;;;4959460;28;20967;-71
2023/06/22 05:43:33;;;;;;;11.40;10.30;;;23.10;99.90;;;;;;4961612;28;20558;-71
2023/06/22 05:46:00;;;;;;;12.40;10.60;;;23.20;99.90;;;;;;4959359;28;20450;-71
2023/06/22 05:48:26;;;;;;;10.20;9.20;;;23.20;99.90;;;;;;4956361;28;20454;-72
2023/06/22 05:50:51;;;;;;;12.03;10.83;;;23.20;99.90;;;;;;4957756;28;20431;-72
2023/06/22 05:53:17;;;;;;;11.00;9.43;;;23.30;99.90;;;;;;4954043;28;20658;-72
2023/06/22 05:55:42;;;;;;;11.00;9.80;;;23.40;99.90;;;;;;4959383;28;20593;-72
2023/06/22 05:58:08;;;;;;;9.70;8.80;;;23.60;99.90;;;;;;4959208;28;20204;-72
2023/06/22 06:00:35;;;;;;;12.50;9.23;;;23.60;99.90;;;;;;4960290;28;20216;-72
2023/06/22 06:03:03;;;;;;;10.23;9.43;;;23.50;99.90;;;;;;4950802;28;20583;-72
2023/06/22 06:05:33;;;;;;;9.53;8.60;;;23.60;99.90;;;;;;4960554;28;20789;-72
2023/06/22 06:08:04;;;;;;;9.93;9.00;;;23.60;99.90;;;;;;4961560;28;20475;-72
2023/06/22 06:10:31;;;;;;;11.77;8.87;;;23.50;99.90;;;;;;4959881;28;20771;-72
2023/06/22 06:12:56;;;;;;;10.20;8.33;;;23.50;99.90;;;;;;4957578;28;20471;-72
2023/06/22 06:15:22;;;;;;;9.70;8.90;;;23.60;99.90;;;;;;4957749;28;20745;-72
2023/06/22 06:17:48;;;;;;;9.23;8.33;;;23.60;99.90;;;;;;4953846;28;20200;-72
2023/06/22 06:20:15;;;;;;;9.77;8.77;;;23.50;99.90;;;;;;4957961;28;20968;-72
2023/06/22 06:22:42;;;;;;;8.93;7.67;;;24.00;99.90;;;;;;4956237;28;20523;-72
2023/06/22 06:25:08;;;;;;;8.90;8.10;;;23.80;99.90;;;;;;4957797;28;20509;-72
2023/06/22 06:27:34;;;;;;;10.20;7.60;;;23.90;99.90;;;;;;4959696;28;20491;-72
2023/06/22 06:29:59;;;;;;;9.17;8.30;;;24.10;99.90;;;;;;4955536;28;20420;-72
2023/06/22 06:32:25;;;;;;;8.97;8.07;;;24.30;99.90;;;;;;4956988;28;20299;-72
2023/06/22 06:34:50;;;;;;;9.80;8.90;;;24.30;99.90;;;;;;4958012;28;20236;-72
2023/06/22 06:37:18;;;;;;;8.97;8.17;;;24.20;99.90;;;;;;4958188;28;20218;-72
2023/06/22 06:39:44;;;;;;;8.83;8.00;;;24.40;99.90;;;;;;4956695;28;20200;-71
2023/06/22 06:42:11;;;;;;;8.73;7.73;;;24.60;99.90;;;;;;4954881;28;20496;-72
2023/06/22 06:44:37;;;;;;;8.87;8.07;;;24.80;99.90;;;;;;4961142;28;20452;-72
2023/06/22 06:47:04;;;;;;;8.70;7.90;;;24.70;99.90;;;;;;4957025;28;20474;-72
2023/06/22 06:49:29;;;;;;;8.37;7.57;;;25.00;99.90;;;;;;4955781;28;20441;-72
2023/06/22 06:51:55;;;;;;;9.43;8.07;;;25.10;99.90;;;;;;4954659;28;20866;-72
2023/06/22 06:54:21;;;;;;;10.50;9.60;;;25.10;99.90;;;;;;4960546;28;20260;-72
2023/06/22 06:56:48;;;;;;;8.30;7.50;;;25.20;99.90;;;;;;4961381;28;20861;-72
2023/06/22 06:59:15;;;;;;;9.27;7.83;;;25.40;99.90;;;;;;4954568;28;20710;-72
2023/06/22 07:01:41;;;;;;;12.37;8.10;;;25.80;99.90;;;;;;4959104;28;20879;-72
2023/06/22 07:04:06;;;;;;;7.23;6.53;;;26.10;99.90;;;;;;4957046;28;20940;-72
2023/06/22 07:06:33;;;;;;;7.93;7.23;;;27.30;99.20;;;;;;4962037;28;20540;-73
2023/06/22 07:08:59;;;;;;;7.80;7.10;;;28.90;95.40;;;;;;4959564;28;20182;-73
2023/06/22 07:11:25;;;;;;;8.03;7.10;;;29.50;94.30;;;;;;4957442;28;20588;-73
2023/06/22 07:13:50;;;;;;;7.63;6.93;;;31.30;90.30;;;;;;4958409;28;20531;-72
2023/06/22 07:16:16;;;;;;;8.10;7.30;;;32.90;85.60;;;;;;4960334;28;20192;-73
2023/06/22 07:18:42;;;;;;;6.97;6.00;;;33.10;79.90;;;;;;4957983;28;20733;-73
2023/06/22 07:21:07;;;;;;;7.23;6.30;;;34.40;77.90;;;;;;4959729;28;20311;-72
2023/06/22 07:23:33;;;;;;;7.00;6.17;;;35.00;73.70;;;;;;4960488;28;20208;-74
2023/06/22 07:26:02;;;;;;;7.37;6.67;;;35.70;70.80;;;;;;4959934;28;20255;-72
2023/06/22 07:28:31;;;;;;;6.97;6.30;;;37.30;66.60;;;;;;4958438;28;20215;-72
2023/06/22 07:30:56;;;;;;;6.67;5.97;;;37.80;62.40;;;;;;4959244;28;20559;-73
2023/06/22 07:33:22;;;;;;;6.70;6.20;;;38.40;59.20;;;;;;4954587;28;20476;-73
2023/06/22 07:35:48;;;;;;;8.47;6.03;;;39.70;56.40;;;;;;4958571;28;20459;-73
2023/06/22 07:38:15;;;;;;;6.13;5.60;;;39.00;56.50;;;;;;4956242;28;20220;-73
2023/06/22 07:40:41;;;;;;;7.50;6.80;;;40.40;54.10;;;;;;4956078;28;20444;-73
2023/06/22 07:43:07;;;;;;;7.47;6.03;;;40.90;51.90;;;;;;4956854;28;20456;-73
2023/06/22 07:45:34;;;;;;;5.77;5.27;;;40.80;50.10;;;;;;4957900;28;20979;-74
2023/06/22 07:48:00;;;;;;;6.67;6.10;;;42.70;48.80;;;;;;4955209;28;20301;-74
2023/06/22 07:50:26;;;;;;;6.77;6.17;;;43.40;46.60;;;;;;4956081;28;21012;-74
2023/06/22 07:52:52;;;;;;;6.93;6.40;;;43.30;45.30;;;;;;4961901;28;20304;-73
2023/06/22 07:55:18;;;;;;;6.33;5.73;;;43.50;44.40;;;;;;4965939;28;20188;-74
2023/06/22 07:57:43;;;;;;;6.40;5.90;;;42.40;44.90;;;;;;4959509;28;20808;-73
2023/06/22 08:00:14;;;;;;;6.03;5.60;;;41.60;46.10;;;;;;4960942;28;20665;-73
2023/06/22 08:02:41;;;;;;;5.57;5.07;;;41.70;45.90;;;;;;4960151;28;20239;-73
2023/06/22 08:05:10;;;;;;;6.77;6.10;;;41.00;47.00;;;;;;4963555;28;20451;-74
2023/06/22 08:07:37;;;;;;;6.30;5.67;;;41.00;46.50;;;;;;4961702;28;20859;-73
2023/06/22 08:10:04;;;;;;;5.30;4.80;;;40.10;46.20;;;;;;4964474;28;20837;-73
2023/06/22 08:12:30;;;;;;;5.93;5.43;;;40.40;46.80;;;;;;4962513;28;20460;-73
2023/06/22 08:14:56;;;;;;;8.60;7.80;;;41.00;46.40;;;;;;4966562;28;20531;-73
2023/06/22 08:17:25;;;;;;;7.30;6.70;;;42.40;44.90;;;;;;4962436;28;20505;-74
2023/06/22 08:19:51;;;;;;;7.57;6.80;;;43.60;43.00;;;;;;4967574;28;20979;-73
2023/06/22 08:22:17;;;;;;;6.40;5.47;;;42.60;42.90;;;;;;4962110;28;20462;-73
2023/06/22 08:24:43;;;;;;;8.20;6.03;;;41.30;44.30;;;;;;4964444;28;20192;-71
2023/06/22 08:27:13;;;;;;;6.60;6.00;;;40.00;45.90;;;;;;4962143;28;20439;-73
2023/06/22 08:29:39;;;;;;;7.53;6.83;;;38.10;48.80;;;;;;4961623;28;20216;-71
2023/06/22 08:32:05;;;;;;;8.33;5.97;;;37.10;51.00;;;;;;4963131;28;20509;-72
2023/06/22 08:34:30;;;;;;;6.83;6.13;;;36.20;51.80;;;;;;4959701;28;20203;-71
2023/06/22 08:36:56;;;;;;;8.33;6.63;;;35.60;54.10;;;;;;4964818;28;20451;-72
2023/06/22 08:39:22;;;;;;;6.60;5.53;;;34.80;55.20;;;;;;4959030;28;20217;-72
2023/06/22 08:41:48;;;;;;;10.33;6.30;;;35.10;55.00;;;;;;4962724;28;20204;-72
2023/06/22 08:44:14;;;;;;;6.20;5.60;;;35.50;54.40;;;;;;4963448;28;20188;-72
2023/06/22 08:46:41;;;;;;;7.00;5.53;;;35.10;54.80;;;;;;4961515;28;20444;-72
2023/06/22 08:49:07;;;;;;;5.80;5.20;;;35.10;54.80;;;;;;4962173;28;20477;-72
2023/06/22 08:51:33;;;;;;;8.50;5.30;;;36.00;54.10;;;;;;4965731;28;20466;-72
2023/06/22 08:53:58;;;;;;;6.23;5.63;;;35.40;54.80;;;;;;4959469;28;20454;-72
2023/06/22 08:56:24;;;;;;;8.30;5.43;;;35.10;54.90;;;;;;4962056;28;20272;-72
2023/06/22 08:58:49;;;;;;;8.53;5.73;;;34.60;56.40;;;;;;4962400;28;20231;-72
2023/06/22 09:01:15;;;;;;;7.97;5.90;;;35.60;56.00;;;;;;4961088;28;20692;-73
2023/06/22 09:03:41;;;;;;;7.07;5.67;;;37.80;52.80;;;;;;4959388;28;20648;-73
2023/06/22 09:06:09;;;;;;;7.30;5.87;;;37.60;51.60;;;;;;4957111;28;20725;-73
2023/06/22 09:08:35;;;;;;;7.83;6.27;;;37.20;51.70;;;;;;4959873;28;20949;-73
2023/06/22 09:11:00;;;;;;;8.20;6.33;;;35.90;54.30;;;;;;4958007;28;20460;-73
2023/06/22 09:13:28;;;;;;;8.27;7.43;;;35.20;55.20;;;;;;4959611;28;20447;-72
2023/06/22 09:15:53;;;;;;;8.30;6.30;;;34.70;55.70;;;;;;4960005;28;20201;-75
2023/06/22 09:18:19;;;;;;;9.60;6.27;;;34.80;56.60;;;;;;4963869;28;20475;-73
2023/06/22 09:20:45;;;;;;;7.07;6.37;;;36.00;55.20;;;;;;4960656;28;20217;-72
2023/06/22 09:23:10;;;;;;;6.67;6.00;;;37.10;53.50;;;;;;4959693;28;20188;-72
2023/06/22 09:25:36;;;;;;;8.40;6.73;;;38.40;50.80;;;;;;4957060;28;20436;-73
2023/06/22 09:28:02;;;;;;;6.73;6.13;;;39.40;49.10;;;;;;4957516;28;20189;-72
2023/06/22 09:30:27;;;;;;;7.23;5.20;;;40.00;48.40;;;;;;4959851;28;20188;-73
2023/06/22 09:32:54;;;;;;;6.80;5.70;;;40.50;47.10;;;;;;4957920;28;20231;-74
2023/06/22 09:35:19;;;;;;;10.40;5.77;;;40.80;46.20;;;;;;4956389;28;20181;-73
2023/06/22 09:37:45;;;;;;;5.70;5.20;;;41.50;45.50;;;;;;4953559;28;20452;-73
2023/06/22 09:40:12;;;;;;;10.20;6.50;;;41.90;44.80;;;;;;4955308;28;20196;-72
2023/06/22 09:42:38;;;;;;;6.93;5.73;;;41.90;42.90;;;;;;4959894;28;20211;-73
2023/06/22 09:45:05;;;;;;;7.83;6.50;;;42.20;44.20;;;;;;4966122;28;20436;-72
2023/06/22 09:47:31;;;;;;;9.83;6.57;;;41.30;44.10;;;;;;4960323;28;20498;-72
2023/06/22 09:49:59;;;;;;;8.23;6.40;;;40.80;43.70;;;;;;4958917;28;20948;-72
2023/06/22 09:52:24;;;;;;;9.30;5.87;;;40.90;45.20;;;;;;4959759;28;20211;-73
2023/06/22 09:54:50;;;;;;;8.40;6.70;;;41.50;44.50;;;;;;4964783;28;20443;-73
2023/06/22 09:57:15;;;;;;;6.80;6.20;;;40.40;44.60;;;;;;4961477;28;20200;-73
2023/06/22 09:59:41;;;;;;;7.07;6.27;;;40.80;45.00;;;;;;4963553;28;20258;-73
2023/06/22 10:02:07;;;;;;;7.77;6.00;;;40.80;44.60;;;;;;4963212;28;20215;-73
2023/06/22 10:04:33;;;;;;;6.80;6.20;;;40.80;44.60;;;;;;4959144;28;20687;-73
2023/06/22 10:06:59;;;;;;;9.20;5.53;;;40.30;45.40;;;;;;4958812;28;20440;-73
2023/06/22 10:09:25;;;;;;;7.10;6.20;;;38.90;47.50;;;;;;4958162;28;20462;-71
2023/06/22 10:11:50;;;;;;;6.73;6.07;;;38.50;48.70;;;;;;4963356;28;20696;-73
2023/06/22 10:14:16;;;;;;;9.90;6.30;;;37.70;49.60;;;;;;4962724;28;20187;-71
2023/06/22 10:16:42;;;;;;;7.23;6.03;;;37.00;51.40;;;;;;4957720;28;20561;-71
2023/06/22 10:19:08;;;;;;;8.60;6.13;;;36.30;52.60;;;;;;4960636;28;20559;-72
2023/06/22 10:21:34;;;;;;;7.77;6.17;;;35.60;53.10;;;;;;4958223;28;20212;-73
2023/06/22 10:24:05;;;;;;;9.07;6.27;;;35.50;53.80;;;;;;4963259;28;20186;-71
2023/06/22 10:26:32;;;;;;;8.53;6.43;;;35.40;54.00;;;;;;4957527;28;20432;-70
2023/06/22 10:28:57;;;;;;;7.20;6.03;;;35.30;54.10;;;;;;4960112;28;20435;-71
2023/06/22 10:31:23;;;;;;;11.10;6.50;;;35.20;54.70;;;;;;4951940;28;20851;-71
2023/06/22 10:33:49;;;;;;;6.93;6.07;;;35.50;54.90;;;;;;4959023;28;20231;-72
2023/06/22 10:36:15;;;;;;;6.33;5.73;;;36.30;53.50;;;;;;4961375;28;20507;-72
2023/06/22 10:38:40;;;;;;;7.10;6.40;;;36.60;52.80;;;;;;4956414;28;20467;-72
2023/06/22 10:41:06;;;;;;;9.97;7.03;;;36.90;53.20;;;;;;4960076;28;20693;-72
2023/06/22 10:43:32;;;;;;;8.93;7.50;;;37.80;51.50;;;;;;4958549;28;20187;-73
2023/06/22 10:45:58;;;;;;;8.23;6.47;;;37.50;50.90;;;;;;4957270;28;20283;-73
2023/06/22 10:48:23;;;;;;;9.30;6.00;;;38.00;50.50;;;;;;4957621;28;20480;-73
2023/06/22 10:50:49;;;;;;;9.33;6.60;;;38.60;49.80;;;;;;4962177;28;20188;-73
2023/06/22 10:53:14;;;;;;;14.33;6.77;;;39.00;48.90;;;;;;4960620;28;20658;-72
2023/06/22 10:55:40;;;;;;;8.40;6.33;;;38.30;49.70;;;;;;4959834;28;20622;-72
2023/06/22 10:58:05;;;;;;;9.30;6.63;;;37.80;50.00;;;;;;4957095;28;20217;-72
2023/06/22 11:00:31;;;;;;;10.63;6.60;;;37.20;50.70;;;;;;4956015;28;20193;-72
2023/06/22 11:02:58;;;;;;;9.63;6.70;;;36.50;52.30;;;;;;4962731;28;20689;-72
2023/06/22 11:05:23;;;;;;;7.57;6.20;;;35.90;53.80;;;;;;4960460;28;20184;-72
2023/06/22 11:07:49;;;;;;;10.47;6.40;;;35.40;54.80;;;;;;4955955;28;21011;-72
2023/06/22 11:10:15;;;;;;;8.57;6.60;;;35.10;55.80;;;;;;4957692;28;20235;-72
2023/06/22 11:12:42;;;;;;;7.00;6.30;;;34.70;56.70;;;;;;4955520;28;20205;-73
2023/06/22 11:15:08;;;;;;;7.13;6.30;;;34.30;58.00;;;;;;4963604;28;20283;-73
2023/06/22 11:17:34;;;;;;;6.97;5.93;;;34.10;58.60;;;;;;4958575;28;20448;-73
2023/06/22 11:20:00;;;;;;;8.60;6.60;;;34.00;59.30;;;;;;4963686;28;20779;-73
2023/06/22 11:22:26;;;;;;;10.00;6.40;;;33.50;60.00;;;;;;4956931;28;20247;-73
2023/06/22 11:24:51;;;;;;;8.37;7.07;;;33.30;60.20;;;;;;4961973;28;20192;-73
2023/06/22 11:27:17;;;;;;;10.30;6.13;;;33.10;61.10;;;;;;4959076;28;20483;-73
2023/06/22 11:29:42;;;;;;;8.03;6.20;;;33.10;59.90;;;;;;4963068;28;20204;-73
2023/06/22 11:32:08;;;;;;;7.60;6.23;;;33.00;59.00;;;;;;4963975;28;20764;-73
2023/06/22 11:34:34;;;;;;;8.40;6.03;;;33.00;59.40;;;;;;4957764;28;20188;-72
2023/06/22 11:37:00;;;;;;;7.90;6.23;;;33.10;59.60;;;;;;4967123;28;20495;-72
2023/06/22 11:39:26;;;;;;;9.30;6.40;;;33.20;59.90;;;;;;4964643;28;20993;-73
2023/06/22 11:41:51;;;;;;;6.77;6.17;;;33.30;61.10;;;;;;4966242;28;20296;-73
2023/06/22 11:44:17;;;;;;;10.03;6.30;;;33.60;59.90;;;;;;4964295;28;20650;-72
2023/06/22 11:46:42;;;;;;;7.37;6.50;;;33.60;59.20;;;;;;4957319;28;20185;-72
2023/06/22 11:49:08;;;;;;;7.10;6.40;;;34.10;59.70;;;;;;4964642;28;20255;-72
2023/06/22 11:51:34;;;;;;;8.30;7.00;;;34.00;60.10;;;;;;4966052;28;20214;-74
2023/06/22 11:53:59;;;;;;;8.47;7.33;;;34.10;60.40;;;;;;4961304;28;20184;-72
2023/06/22 11:56:25;;;;;;;11.20;6.70;;;34.20;60.30;;;;;;4966563;28;20222;-72
2023/06/22 11:58:50;;;;;;;8.23;6.50;;;34.10;61.10;;;;;;4964318;28;20377;-71
2023/06/22 12:01:16;;;;;;;8.20;6.37;;;34.10;61.30;;;;;;4964857;28;20242;-72
2023/06/22 12:03:43;;;;;;;11.60;7.13;;;33.90;62.20;;;;;;4960516;28;20474;-72
2023/06/22 12:06:09;;;;;;;10.10;7.60;;;34.00;62.90;;;;;;4964454;28;20192;-71
2023/06/22 12:08:35;;;;;;;10.20;6.60;;;34.00;61.70;;;;;;4962031;28;20865;-71
2023/06/22 12:11:00;;;;;;;10.87;6.90;;;34.00;61.40;;;;;;4965235;28;20680;-72
2023/06/22 12:13:26;;;;;;;7.77;6.77;;;34.00;61.10;;;;;;4965403;28;20662;-72
2023/06/22 12:15:55;;;;;;;9.17;6.90;;;33.60;62.20;;;;;;4959777;28;20181;-72
2023/06/22 12:18:21;;;;;;;14.37;8.63;;;33.50;62.10;;;;;;4962883;28;20269;-72
2023/06/22 12:20:47;;;;;;;11.40;10.23;;;33.40;62.20;;;;;;4958891;28;20787;-72
2023/06/22 12:23:12;;;;;;;9.30;7.60;;;33.20;63.50;;;;;;4961755;28;20794;-72
2023/06/22 12:25:38;;;;;;;9.20;7.00;;;33.10;63.60;;;;;;4962853;28;20187;-72
2023/06/22 12:28:04;;;;;;;7.80;6.63;;;32.90;64.50;;;;;;4957077;28;20271;-72
2023/06/22 12:30:30;;;;;;;7.77;7.00;;;33.20;63.20;;;;;;4962556;28;20658;-72
2023/06/22 12:32:56;;;;;;;11.60;7.60;;;33.20;63.20;;;;;;4965544;28;20482;-71
2023/06/22 12:35:21;;;;;;;7.77;6.70;;;33.20;63.20;;;;;;4959177;28;20189;-71
2023/06/22 12:37:47;;;;;;;9.13;7.13;;;33.00;63.70;;;;;;4955797;28;20246;-72
2023/06/22 12:40:13;;;;;;;8.70;6.63;;;32.90;63.90;;;;;;4961109;28;20201;-72